RPC1404 RPLL-RPLL
Flight info
| Callsign | RPC1404 |
|---|---|
| Flight time | 0h 37m |
| Altitude | 7000 |
| Route | JOM2A JOM DCT POLIO POLIO1C |
| Aircraft | C172/L-SFG/C |
Departure
| Time | 2026-05-04 15:16 |
|---|---|
| Airport | Ninoy Aquino International Airport (RPLL) |
Arrival
| Time | 2026-05-04 15:53 |
|---|---|
| Airport | Ninoy Aquino International Airport (RPLL) |
| Time | Latitude | Longitude | Altitude | Speed | Heading |
|---|---|---|---|---|---|
| 2026-05-04 15:04 | 14.51793 | 121.00585 | 77 ft | 0 kts | 334° |
| 2026-05-04 15:13 | 14.51794 | 121.00584 | 77 ft | 1 kts | 334° |
| 2026-05-04 15:13 | 14.51823 | 121.00571 | 77 ft | 7 kts | 328° |
| 2026-05-04 15:13 | 14.51857 | 121.00571 | 77 ft | 6 kts | 69° |
| 2026-05-04 15:13 | 14.51910 | 121.00600 | 77 ft | 12 kts | 12° |
| 2026-05-04 15:14 | 14.52006 | 121.00618 | 77 ft | 12 kts | 10° |
| 2026-05-04 15:14 | 14.52094 | 121.00633 | 77 ft | 14 kts | 9° |
| 2026-05-04 15:14 | 14.52103 | 121.00675 | 77 ft | 10 kts | 136° |
| 2026-05-04 15:14 | 14.51926 | 121.00858 | 77 ft | 59 kts | 135° |
| 2026-05-04 15:15 | 14.51582 | 121.01197 | 185 ft | 71 kts | 129° |
| 2026-05-04 15:15 | 14.51226 | 121.01576 | 348 ft | 73 kts | 132° |
| 2026-05-04 15:15 | 14.50853 | 121.01968 | 492 ft | 77 kts | 127° |
| 2026-05-04 15:16 | 14.50122 | 121.02817 | 791 ft | 79 kts | 126° |
| 2026-05-04 15:16 | 14.49740 | 121.03220 | 938 ft | 80 kts | 128° |
| 2026-05-04 15:16 | 14.48858 | 121.04011 | 1057 ft | 84 kts | 166° |
| 2026-05-04 15:17 | 14.48277 | 121.03783 | 1010 ft | 97 kts | 219° |
| 2026-05-04 15:17 | 14.47584 | 121.02610 | 1058 ft | 94 kts | 234° |
| 2026-05-04 15:17 | 14.47234 | 121.02046 | 1081 ft | 93 kts | 233° |
| 2026-05-04 15:18 | 14.46855 | 121.01502 | 1090 ft | 94 kts | 232° |
| 2026-05-04 15:18 | 14.46485 | 121.00943 | 1100 ft | 94 kts | 233° |
| 2026-05-04 15:18 | 14.46152 | 121.00359 | 1119 ft | 95 kts | 238° |
| 2026-05-04 15:19 | 14.45552 | 120.99150 | 1151 ft | 94 kts | 236° |
| 2026-05-04 15:19 | 14.45202 | 120.98567 | 1139 ft | 97 kts | 235° |
| 2026-05-04 15:19 | 14.44532 | 120.97401 | 1159 ft | 93 kts | 238° |
| 2026-05-04 15:20 | 14.44092 | 120.96944 | 1153 ft | 87 kts | 188° |
| 2026-05-04 15:20 | 14.43556 | 120.97076 | 1148 ft | 78 kts | 129° |
| 2026-05-04 15:20 | 14.43482 | 120.97579 | 1135 ft | 76 kts | 62° |
| 2026-05-04 15:20 | 14.43989 | 120.97823 | 1074 ft | 90 kts | 360° |
| 2026-05-04 15:21 | 14.44465 | 120.97431 | 1088 ft | 93 kts | 290° |
| 2026-05-04 15:21 | 14.44386 | 120.96786 | 1071 ft | 93 kts | 231° |
| 2026-05-04 15:21 | 14.43483 | 120.96885 | 1043 ft | 80 kts | 107° |
| 2026-05-04 15:22 | 14.43554 | 120.97417 | 1061 ft | 78 kts | 50° |
| 2026-05-04 15:22 | 14.44085 | 120.97518 | 1042 ft | 91 kts | 338° |
| 2026-05-04 15:22 | 14.44188 | 120.96471 | 1155 ft | 83 kts | 209° |
| 2026-05-04 15:23 | 14.43672 | 120.96487 | 1156 ft | 74 kts | 127° |
| 2026-05-04 15:23 | 14.43743 | 120.96966 | 1128 ft | 79 kts | 40° |
| 2026-05-04 15:23 | 14.44284 | 120.96961 | 1156 ft | 82 kts | 347° |
| 2026-05-04 15:23 | 14.44837 | 120.96692 | 1119 ft | 88 kts | 334° |
| 2026-05-04 15:24 | 14.45897 | 120.96056 | 1102 ft | 91 kts | 337° |
| 2026-05-04 15:24 | 14.47091 | 120.95667 | 1045 ft | 85 kts | 17° |
| 2026-05-04 15:25 | 14.47511 | 120.96042 | 1006 ft | 78 kts | 58° |
| 2026-05-04 15:25 | 14.47805 | 120.96514 | 973 ft | 81 kts | 58° |
| 2026-05-04 15:25 | 14.48144 | 120.97015 | 895 ft | 86 kts | 60° |
| 2026-05-04 15:26 | 14.48687 | 120.98056 | 721 ft | 80 kts | 60° |
| 2026-05-04 15:26 | 14.48964 | 120.98552 | 620 ft | 81 kts | 65° |
| 2026-05-04 15:26 | 14.49518 | 120.99550 | 379 ft | 77 kts | 71° |
| 2026-05-04 15:27 | 14.49780 | 121.00018 | 219 ft | 74 kts | 72° |
| 2026-05-04 15:27 | 14.50247 | 121.00843 | 77 ft | 56 kts | 61° |
| 2026-05-04 15:28 | 14.50784 | 121.01727 | 341 ft | 73 kts | 57° |
| 2026-05-04 15:28 | 14.51008 | 121.02188 | 506 ft | 72 kts | 88° |
| 2026-05-04 15:28 | 14.50151 | 121.02654 | 662 ft | 73 kts | 155° |
| 2026-05-04 15:29 | 14.49671 | 121.02731 | 705 ft | 72 kts | 184° |
| 2026-05-04 15:30 | 14.48334 | 121.00857 | 1191 ft | 90 kts | 230° |
| 2026-05-04 15:30 | 14.48142 | 120.99158 | 1577 ft | 95 kts | 327° |
| 2026-05-04 15:31 | 14.49343 | 120.98357 | 1258 ft | 100 kts | 335° |
| 2026-05-04 15:32 | 14.50799 | 120.97533 | 748 ft | 101 kts | 327° |
| 2026-05-04 15:32 | 14.51890 | 120.96831 | 619 ft | 86 kts | 343° |
| 2026-05-04 15:33 | 14.52745 | 120.97292 | 655 ft | 78 kts | 62° |
| 2026-05-04 15:34 | 14.53362 | 120.98880 | 702 ft | 86 kts | 90° |
| 2026-05-04 15:34 | 14.53158 | 120.99495 | 603 ft | 95 kts | 123° |
| 2026-05-04 15:34 | 14.52360 | 121.00387 | 263 ft | 74 kts | 123° |
| 2026-05-04 15:35 | 14.51784 | 121.01019 | 77 ft | 55 kts | 135° |
| 2026-05-04 15:35 | 14.51451 | 121.01332 | 181 ft | 69 kts | 126° |
| 2026-05-04 15:35 | 14.51180 | 121.01696 | 343 ft | 68 kts | 116° |
| 2026-05-04 15:36 | 14.50560 | 121.02406 | 719 ft | 64 kts | 125° |
| 2026-05-04 15:36 | 14.50244 | 121.02710 | 883 ft | 67 kts | 141° |
| 2026-05-04 15:36 | 14.49758 | 121.02811 | 969 ft | 78 kts | 182° |
| 2026-05-04 15:37 | 14.49281 | 121.02509 | 1041 ft | 84 kts | 223° |
| 2026-05-04 15:37 | 14.48961 | 121.02007 | 1111 ft | 85 kts | 237° |
| 2026-05-04 15:37 | 14.48722 | 121.01432 | 1158 ft | 89 kts | 245° |
| 2026-05-04 15:37 | 14.48474 | 121.00861 | 1205 ft | 88 kts | 242° |
| 2026-05-04 15:38 | 14.48285 | 121.00259 | 1219 ft | 88 kts | 271° |
| 2026-05-04 15:38 | 14.48547 | 120.99723 | 1224 ft | 82 kts | 324° |
| 2026-05-04 15:38 | 14.48974 | 120.99334 | 1227 ft | 83 kts | 326° |
| 2026-05-04 15:38 | 14.49410 | 120.98981 | 1261 ft | 82 kts | 325° |
| 2026-05-04 15:39 | 14.49855 | 120.98620 | 1301 ft | 77 kts | 325° |
| 2026-05-04 15:39 | 14.50290 | 120.98273 | 1290 ft | 80 kts | 330° |
| 2026-05-04 15:39 | 14.51227 | 120.97509 | 1279 ft | 86 kts | 330° |
| 2026-05-04 15:40 | 14.51771 | 120.97162 | 1191 ft | 93 kts | 333° |
| 2026-05-04 15:40 | 14.52317 | 120.96803 | 1151 ft | 91 kts | 329° |
| 2026-05-04 15:40 | 14.52843 | 120.96439 | 1116 ft | 90 kts | 333° |
| 2026-05-04 15:40 | 14.53370 | 120.96089 | 1065 ft | 91 kts | 331° |
| 2026-05-04 15:41 | 14.53908 | 120.95773 | 1061 ft | 86 kts | 338° |
| 2026-05-04 15:41 | 14.54448 | 120.95515 | 1032 ft | 86 kts | 339° |
| 2026-05-04 15:41 | 14.54994 | 120.95277 | 1031 ft | 82 kts | 344° |
| 2026-05-04 15:41 | 14.55540 | 120.95066 | 1013 ft | 82 kts | 345° |
| 2026-05-04 15:42 | 14.56062 | 120.94878 | 1023 ft | 74 kts | 1° |
| 2026-05-04 15:42 | 14.56424 | 120.95148 | 981 ft | 68 kts | 65° |
| 2026-05-04 15:42 | 14.56587 | 120.95653 | 913 ft | 74 kts | 75° |
| 2026-05-04 15:42 | 14.56539 | 120.96139 | 946 ft | 67 kts | 125° |
| 2026-05-04 15:43 | 14.56158 | 120.96472 | 981 ft | 77 kts | 133° |
| 2026-05-04 15:43 | 14.55735 | 120.96848 | 1059 ft | 82 kts | 128° |
| 2026-05-04 15:43 | 14.55309 | 120.97274 | 1088 ft | 86 kts | 132° |
| 2026-05-04 15:43 | 14.54883 | 120.97716 | 1009 ft | 89 kts | 128° |
| 2026-05-04 15:44 | 14.54437 | 120.98174 | 927 ft | 89 kts | 131° |
| 2026-05-04 15:44 | 14.54003 | 120.98637 | 820 ft | 92 kts | 129° |
| 2026-05-04 15:44 | 14.53553 | 120.99088 | 679 ft | 84 kts | 134° |
| 2026-05-04 15:44 | 14.53186 | 120.99535 | 475 ft | 82 kts | 128° |
| 2026-05-04 15:45 | 14.52810 | 120.99927 | 330 ft | 70 kts | 136° |
| 2026-05-04 15:45 | 14.52501 | 121.00259 | 188 ft | 60 kts | 128° |
| 2026-05-04 15:45 | 14.52217 | 121.00558 | 86 ft | 52 kts | 125° |
| 2026-05-04 15:45 | 14.51977 | 121.00811 | 78 ft | 62 kts | 141° |
| 2026-05-04 15:46 | 14.51638 | 121.01177 | 201 ft | 72 kts | 122° |
| 2026-05-04 15:46 | 14.51290 | 121.01602 | 288 ft | 83 kts | 139° |
| 2026-05-04 15:46 | 14.50835 | 121.01978 | 377 ft | 80 kts | 134° |
| 2026-05-04 15:46 | 14.50436 | 121.02316 | 497 ft | 68 kts | 134° |
| 2026-05-04 15:47 | 14.50075 | 121.02629 | 526 ft | 65 kts | 131° |
| 2026-05-04 15:47 | 14.49703 | 121.02844 | 564 ft | 64 kts | 160° |
| 2026-05-04 15:47 | 14.49214 | 121.02724 | 595 ft | 76 kts | 208° |
| 2026-05-04 15:47 | 14.48836 | 121.02286 | 679 ft | 88 kts | 224° |
| 2026-05-04 15:48 | 14.48497 | 121.01781 | 814 ft | 81 kts | 229° |
| 2026-05-04 15:48 | 14.48160 | 121.01279 | 840 ft | 88 kts | 230° |
| 2026-05-04 15:48 | 14.48122 | 121.00126 | 971 ft | 88 kts | 316° |
| 2026-05-04 15:49 | 14.48608 | 120.99767 | 1038 ft | 85 kts | 322° |
| 2026-05-04 15:49 | 14.49069 | 120.99339 | 1064 ft | 89 kts | 320° |
| 2026-05-04 15:49 | 14.49520 | 120.98917 | 1114 ft | 86 kts | 321° |
| 2026-05-04 15:49 | 14.49989 | 120.98526 | 1138 ft | 82 kts | 324° |
| 2026-05-04 15:50 | 14.50436 | 120.98159 | 1137 ft | 78 kts | 326° |
| 2026-05-04 15:50 | 14.50865 | 120.97809 | 1083 ft | 85 kts | 325° |
| 2026-05-04 15:50 | 14.51324 | 120.97428 | 1101 ft | 85 kts | 322° |
| 2026-05-04 15:50 | 14.51789 | 120.97036 | 1117 ft | 81 kts | 337° |
| 2026-05-04 15:51 | 14.52276 | 120.97087 | 1140 ft | 66 kts | 45° |
| 2026-05-04 15:51 | 14.52553 | 120.97464 | 1108 ft | 67 kts | 51° |
| 2026-05-04 15:51 | 14.52828 | 120.97840 | 1087 ft | 64 kts | 54° |
| 2026-05-04 15:51 | 14.53115 | 120.98219 | 1026 ft | 67 kts | 54° |
| 2026-05-04 15:52 | 14.53304 | 120.98653 | 997 ft | 65 kts | 78° |
| 2026-05-04 15:52 | 14.53251 | 120.99111 | 863 ft | 65 kts | 92° |
| 2026-05-04 15:52 | 14.53148 | 120.99551 | 687 ft | 64 kts | 117° |
| 2026-05-04 15:52 | 14.52841 | 120.99891 | 499 ft | 64 kts | 129° |
| 2026-05-04 15:53 | 14.52539 | 121.00199 | 331 ft | 59 kts | 127° |
| 2026-05-04 15:53 | 14.52256 | 121.00519 | 160 ft | 64 kts | 120° |
| 2026-05-04 15:53 | 14.51962 | 121.00819 | 78 ft | 48 kts | 131° |
| 2026-05-04 15:53 | 14.51674 | 121.01131 | 147 ft | 66 kts | 124° |
| 2026-05-04 15:54 | 14.51350 | 121.01489 | 320 ft | 67 kts | 128° |
| 2026-05-04 15:54 | 14.51016 | 121.01830 | 515 ft | 65 kts | 130° |
| 2026-05-04 15:54 | 14.50690 | 121.02178 | 661 ft | 68 kts | 129° |
| 2026-05-04 15:54 | 14.50357 | 121.02517 | 786 ft | 68 kts | 131° |
| 2026-05-04 15:55 | 14.49933 | 121.02762 | 881 ft | 78 kts | 167° |
| 2026-05-04 15:55 | 14.49433 | 121.02468 | 946 ft | 91 kts | 232° |
| 2026-05-04 15:55 | 14.49149 | 121.01885 | 1069 ft | 90 kts | 238° |
| 2026-05-04 15:55 | 14.48899 | 121.01313 | 1212 ft | 87 kts | 237° |
| 2026-05-04 15:56 | 14.48588 | 121.00760 | 1254 ft | 90 kts | 237° |
| 2026-05-04 15:56 | 14.48418 | 121.00141 | 1250 ft | 93 kts | 271° |
| 2026-05-04 15:56 | 14.48633 | 120.99551 | 1240 ft | 84 kts | 319° |
| 2026-05-04 15:56 | 14.49103 | 120.99148 | 1209 ft | 82 kts | 325° |
| 2026-05-04 15:57 | 14.49553 | 120.98762 | 1145 ft | 86 kts | 327° |
| 2026-05-04 15:57 | 14.50011 | 120.98379 | 1121 ft | 85 kts | 324° |
| 2026-05-04 15:57 | 14.50453 | 120.97970 | 1079 ft | 84 kts | 323° |
| 2026-05-04 15:57 | 14.50902 | 120.97557 | 1044 ft | 84 kts | 327° |
| 2026-05-04 15:58 | 14.51380 | 120.97199 | 1015 ft | 82 kts | 330° |
| 2026-05-04 15:58 | 14.51858 | 120.96864 | 985 ft | 82 kts | 334° |
| 2026-05-04 15:58 | 14.52374 | 120.96542 | 942 ft | 88 kts | 333° |
| 2026-05-04 15:58 | 14.52899 | 120.96220 | 937 ft | 86 kts | 333° |
| 2026-05-04 15:59 | 14.53383 | 120.95875 | 931 ft | 87 kts | 326° |
| 2026-05-04 15:59 | 14.53881 | 120.95523 | 929 ft | 85 kts | 327° |
| 2026-05-04 15:59 | 14.54335 | 120.95169 | 969 ft | 81 kts | 323° |
| 2026-05-04 15:59 | 14.54800 | 120.94842 | 977 ft | 76 kts | 358° |
| 2026-05-04 16:00 | 14.55197 | 120.95113 | 951 ft | 70 kts | 63° |
| 2026-05-04 16:00 | 14.55459 | 120.95538 | 942 ft | 69 kts | 57° |
| 2026-05-04 16:00 | 14.55720 | 120.95955 | 964 ft | 69 kts | 64° |
| 2026-05-04 16:00 | 14.55924 | 120.96413 | 961 ft | 71 kts | 82° |
| 2026-05-04 16:01 | 14.55726 | 120.96877 | 929 ft | 76 kts | 128° |
| 2026-05-04 16:01 | 14.55329 | 120.97289 | 904 ft | 78 kts | 130° |
| 2026-05-04 16:01 | 14.54969 | 120.97650 | 907 ft | 65 kts | 130° |
| 2026-05-04 16:01 | 14.54645 | 120.97997 | 819 ft | 71 kts | 131° |
| 2026-05-04 16:02 | 14.54286 | 120.98379 | 763 ft | 74 kts | 131° |
| 2026-05-04 16:02 | 14.53950 | 120.98722 | 685 ft | 66 kts | 127° |
| 2026-05-04 16:02 | 14.53297 | 120.99402 | 500 ft | 61 kts | 133° |
| 2026-05-04 16:03 | 14.53006 | 120.99734 | 452 ft | 64 kts | 126° |
| 2026-05-04 16:03 | 14.52711 | 121.00054 | 586 ft | 59 kts | 121° |
| 2026-05-04 16:03 | 14.52433 | 121.00349 | 727 ft | 52 kts | 127° |
| 2026-05-04 16:03 | 14.52178 | 121.00644 | 818 ft | 56 kts | 124° |
| 2026-05-04 16:04 | 14.51915 | 121.00938 | 925 ft | 55 kts | 123° |
| 2026-05-04 16:04 | 14.51395 | 121.01571 | 1065 ft | 55 kts | 123° |
| 2026-05-04 16:04 | 14.51156 | 121.01887 | 1123 ft | 59 kts | 123° |
| 2026-05-04 16:05 | 14.50830 | 121.02158 | 1234 ft | 59 kts | 135° |
| 2026-05-04 16:05 | 14.50478 | 121.02407 | 1306 ft | 61 kts | 133° |
| 2026-05-04 16:05 | 14.49800 | 121.03020 | 1387 ft | 68 kts | 126° |
| 2026-05-04 16:06 | 14.49469 | 121.03342 | 1468 ft | 64 kts | 122° |
| 2026-05-04 16:06 | 14.48503 | 121.04010 | 1646 ft | 74 kts | 172° |
| 2026-05-04 16:07 | 14.47849 | 121.03703 | 1745 ft | 82 kts | 214° |
| 2026-05-04 16:07 | 14.46798 | 121.02338 | 2013 ft | 81 kts | 228° |
| 2026-05-04 16:08 | 14.46493 | 121.01847 | 2076 ft | 82 kts | 233° |
| 2026-05-04 16:08 | 14.45636 | 121.00334 | 2223 ft | 79 kts | 224° |
| 2026-05-04 16:09 | 14.44978 | 120.99339 | 2347 ft | 83 kts | 229° |
| 2026-05-04 16:09 | 14.44364 | 120.98273 | 2455 ft | 85 kts | 236° |
| 2026-05-04 16:10 | 14.44020 | 120.97136 | 2528 ft | 85 kts | 291° |
| 2026-05-04 16:11 | 14.45448 | 120.96168 | 2154 ft | 85 kts | 338° |
| 2026-05-04 16:11 | 14.45974 | 120.95906 | 1950 ft | 85 kts | 345° |
| 2026-05-04 16:12 | 14.47467 | 120.96139 | 1303 ft | 75 kts | 52° |
| 2026-05-04 16:12 | 14.48327 | 120.97396 | 798 ft | 71 kts | 62° |
| 2026-05-04 16:13 | 14.48808 | 120.98264 | 550 ft | 64 kts | 66° |
| 2026-05-04 16:13 | 14.49287 | 120.99075 | 401 ft | 72 kts | 62° |
| 2026-05-04 16:14 | 14.49718 | 120.99923 | 207 ft | 61 kts | 63° |
| 2026-05-04 16:14 | 14.50148 | 121.00670 | 78 ft | 41 kts | 62° |
| 2026-05-04 16:15 | 14.50288 | 121.00832 | 77 ft | 14 kts | 265° |
| 2026-05-04 16:16 | 14.50334 | 121.00732 | 77 ft | 9 kts | 35° |
| 2026-05-04 16:16 | 14.50547 | 121.01087 | 77 ft | 29 kts | 62° |
| 2026-05-04 16:17 | 14.50759 | 121.01481 | 77 ft | 30 kts | 62° |
| 2026-05-04 16:18 | 14.50998 | 121.01674 | 77 ft | 26 kts | 311° |
| 2026-05-04 16:18 | 14.51157 | 121.01511 | 77 ft | 32 kts | 314° |
| 2026-05-04 16:19 | 14.51591 | 121.01205 | 78 ft | 70 kts | 315° |
| 2026-05-04 16:19 | 14.52047 | 121.00739 | 77 ft | 23 kts | 325° |
| 2026-05-04 16:20 | 14.51882 | 121.00594 | 77 ft | 11 kts | 215° |
| 2026-05-04 16:20 | 14.51803 | 121.00539 | 77 ft | 13 kts | 77° |
| 2026-05-04 16:21 | 14.51809 | 121.00541 | 77 ft | 8 kts | 24° |
| 2026-05-04 16:22 | 14.51823 | 121.00503 | 77 ft | 19 kts | 49° |
| 2026-05-04 16:22 | 14.51804 | 121.00509 | 77 ft | 0 kts | 244° |